Orienta, Oklahoma
Current Conditions -  °F | °C
As of 12:15 PM on Wednesday 28 Jan 2015 (Local Time) from KJWG Reporting Station
Clear Clear  
Wind Chill: 20°   Ceiling: Unl
Heat Index: 20°   Visibility: 10mi
Dew Point:   Wind: 17mph
Humidity: 42%   Direction: 230°SW
Pressure: 29.93"   Gusts: NA
Location:  36.2837°N, 98.6091°W
Report Text: KJWG 281815Z AUTO 23015KT 10SM CLR 20/07 A2993 RMK AO2 T01990066
Loading
Personal Weather Stations






























Interactive Weather Map New forecast layout! Learn more

10-Day Weather Forecast

Advertisements
Track Severe Weather on mobile